Time;durP1;ratioP1;P1;durP2;ratioP2;P2;SDS_P1;SDS_P2;PMS_P1;PMS_P2;Temp;Humidity;BMP_temperature;BMP_pressure;BME280_temperature;BME280_humidity;BME280_pressure;Samples;Min_cycle;Max_cycle;Signal;HPM_P1;HPM_P2
2021/12/26 00:00:53;;;;;;;;;64.67;45.00;;;;;4.85;75.46;100463.31;5096031;27;45496;-70
2021/12/26 00:03:18;;;;;;;;;67.67;45.00;;;;;4.86;76.21;100459.81;5094187;27;45483;-70
2021/12/26 00:05:44;;;;;;;;;65.33;48.67;;;;;4.87;76.38;100456.28;5095453;27;45373;-70
2021/12/26 00:08:09;;;;;;;;;62.33;45.00;;;;;4.89;76.98;100462.38;5084985;27;46028;-70
2021/12/26 00:10:35;;;;;;;;;66.33;44.00;;;;;4.82;76.14;100440.63;5095916;27;45348;-70
2021/12/26 00:13:00;;;;;;;;;68.67;46.67;;;;;4.94;75.47;100453.56;5096370;27;45442;-70
2021/12/26 00:15:26;;;;;;;;;65.33;44.67;;;;;4.94;76.08;100465.78;5095685;27;45635;-70
2021/12/26 00:17:51;;;;;;;;;63.33;45.33;;;;;4.80;76.42;100439.78;5097533;27;46435;-70
2021/12/26 00:20:18;;;;;;;;;56.67;41.67;;;;;4.95;75.79;100463.16;5093039;27;45533;-70
2021/12/26 00:22:44;;;;;;;;;52.67;44.00;;;;;4.96;76.12;100467.50;5088460;27;45468;-70
2021/12/26 00:25:12;;;;;;;;;61.00;48.00;;;;;4.90;75.23;100457.09;5053842;28;45461;-70
2021/12/26 00:27:38;;;;;;;;;70.67;46.67;;;;;4.85;75.38;100443.19;5054922;28;45404;-69
2021/12/26 00:30:10;;;;;;;;;60.67;44.00;;;;;4.96;76.74;100459.63;5056968;28;45427;-69
2021/12/26 00:32:36;;;;;;;;;62.00;47.33;;;;;4.87;75.21;100453.66;5054169;28;45485;-69
2021/12/26 00:35:02;;;;;;;;;69.33;44.00;;;;;4.96;76.59;100462.25;5054417;28;45369;-69
2021/12/26 00:37:28;;;;;;;;;62.00;44.67;;;;;4.96;76.40;100454.38;5049026;28;49177;-69
2021/12/26 00:39:53;;;;;;;;;61.67;46.33;;;;;4.85;75.90;100426.59;5054701;28;45397;-69
2021/12/26 00:42:19;;;;;;;;;66.33;47.33;;;;;4.94;75.88;100434.31;5055179;28;45364;-69
2021/12/26 00:44:44;;;;;;;;;64.00;44.33;;;;;4.86;75.49;100416.09;5056399;28;45356;-69
2021/12/26 00:47:11;;;;;;;;;62.67;45.67;;;;;4.96;76.50;100443.91;5054186;28;45489;-69
2021/12/26 00:49:37;;;;;;;;;69.67;45.00;;;;;4.96;76.52;100438.66;5054133;28;45614;-69
2021/12/26 00:52:04;;;;;;;;;58.67;44.00;;;;;4.86;75.65;100417.88;5054656;28;45517;-69
2021/12/26 00:54:30;;;;;;;;;72.67;49.00;;;;;4.97;77.42;100436.88;5055089;28;45609;-69
2021/12/26 00:56:56;;;;;;;;;63.00;49.33;;;;;4.85;76.19;100411.72;5056214;28;45568;-69
2021/12/26 00:59:22;;;;;;;;;47.00;40.67;;;;;4.59;75.36;100372.84;5052836;28;45942;-69
2021/12/26 01:01:47;;;;;;;;;46.25;39.00;;;;;4.92;76.50;100423.88;5054336;28;45333;-69
2021/12/26 01:04:13;;;;;;;;;60.33;41.33;;;;;4.39;75.72;100336.47;5054435;28;45478;-69
2021/12/26 01:06:39;;;;;;;;;61.33;44.33;;;;;4.98;76.24;100428.16;5054239;28;46015;-69
2021/12/26 01:09:08;;;;;;;;;49.33;39.00;;;;;5.01;77.27;100431.59;5056498;28;45450;-69
2021/12/26 01:11:46;;;;;;;;;56.67;44.00;;;;;4.78;76.37;100394.38;5051815;28;45511;-69
2021/12/26 01:14:15;;;;;;;;;64.00;42.00;;;;;4.71;76.44;100371.78;5054132;28;45404;-69
2021/12/26 01:16:41;;;;;;;;;70.00;49.00;;;;;4.93;76.87;100414.25;5054170;28;46160;-69
2021/12/26 01:19:13;;;;;;;;;64.33;44.67;;;;;4.90;76.40;100402.03;5053771;28;45435;-69
2021/12/26 01:21:39;;;;;;;;;68.00;50.33;;;;;4.91;76.90;100393.31;5037327;28;45464;-69
2021/12/26 01:24:11;;;;;;;;;62.00;47.00;;;;;5.04;76.84;100401.81;5066923;28;45373;-69
2021/12/26 01:26:37;;;;;;;;;63.33;44.00;;;;;5.00;75.83;100395.75;5052003;28;47000;-69
2021/12/26 01:29:04;;;;;;;;;72.00;49.67;;;;;5.07;76.51;100406.16;5068494;28;45443;-69
2021/12/26 01:31:30;;;;;;;;;63.33;49.33;;;;;5.04;76.13;100417.56;5074015;27;45532;-69
2021/12/26 01:34:02;;;;;;;;;62.33;43.67;;;;;5.03;76.70;100414.94;5073609;27;45455;-69
2021/12/26 01:36:30;;;;;;;;;69.33;46.67;;;;;5.01;76.04;100410.59;5071292;28;45534;-69
2021/12/26 01:38:58;;;;;;;;;59.75;41.00;;;;;5.05;76.10;100416.66;5075353;27;45436;-69
2021/12/26 01:41:25;;;;;;;;;63.00;43.00;;;;;5.04;75.75;100412.31;5073924;27;45388;-69
2021/12/26 01:43:56;;;;;;;;;63.00;47.00;;;;;4.96;76.06;100407.19;5073862;28;45400;-69
2021/12/26 01:46:22;;;;;;;;;62.67;42.33;;;;;5.04;75.78;100407.06;5074052;27;45380;-69
2021/12/26 01:48:47;;;;;;;;;65.00;48.67;;;;;5.04;75.66;100406.19;5068188;27;45578;-69
2021/12/26 01:51:12;;;;;;;;;68.67;44.67;;;;;4.85;75.84;100377.63;5075268;28;45328;-69
2021/12/26 01:53:39;;;;;;;;;67.67;50.00;;;;;5.05;75.74;100407.91;5075047;28;45450;-69
2021/12/26 01:56:07;;;;;;;;;67.33;42.33;;;;;5.00;76.36;100390.53;5073545;28;45386;-70
2021/12/26 01:58:36;;;;;;;;;61.33;47.00;;;;;4.91;76.05;100380.19;5073650;28;45396;-70
2021/12/26 02:01:06;;;;;;;;;63.67;47.00;;;;;5.01;76.76;100400.09;5073933;28;45610;-70
2021/12/26 02:03:32;;;;;;;;;63.67;45.67;;;;;4.77;76.09;100353.31;5073396;28;45302;-70
2021/12/26 02:05:57;;;;;;;;;64.33;46.67;;;;;5.04;75.34;100393.09;5075484;27;46147;-70
2021/12/26 02:08:23;;;;;;;;;63.67;45.33;;;;;5.05;76.22;100387.81;5073709;28;45387;-69
2021/12/26 02:10:49;;;;;;;;;65.67;47.00;;;;;4.93;76.17;100364.41;5073473;28;45545;-69
2021/12/26 02:13:15;;;;;;;;;60.33;42.00;;;;;5.07;75.48;100387.78;5073416;28;45461;-69
2021/12/26 02:15:40;;;;;;;;;64.00;47.00;;;;;5.06;75.02;100378.16;5071944;28;45382;-69
2021/12/26 02:18:07;;;;;;;;;66.00;47.67;;;;;5.03;76.71;100376.50;5074974;27;45329;-69
2021/12/26 02:20:58;;;;;;;;;69.67;47.67;;;;;4.97;77.30;100360.84;5072935;28;45490;-69
2021/12/26 02:23:30;;;;;;;;;65.67;48.00;;;;;4.74;75.96;100332.41;5073332;28;45349;-69
2021/12/26 02:28:44;;;;;;;;;57.33;44.67;;;;;4.97;75.66;100385.31;5073223;28;45473;-69
2021/12/26 02:31:10;;;;;;;;;57.00;41.00;;;;;5.01;76.65;100396.63;5073034;27;45391;-69
2021/12/26 02:33:37;;;;;;;;;65.67;45.00;;;;;5.03;75.98;100399.22;5073434;27;45419;-69
2021/12/26 02:36:04;;;;;;;;;66.33;47.67;;;;;5.04;75.84;100403.59;5071113;28;45430;-69
2021/12/26 02:38:29;;;;;;;;;63.00;42.67;;;;;4.85;76.63;100369.78;5073026;28;46117;-69
2021/12/26 02:40:57;;;;;;;;;56.00;43.25;;;;;5.03;76.50;100396.59;5072340;27;45290;-69
2021/12/26 02:43:26;;;;;;;;;62.00;45.67;;;;;5.09;76.92;100394.75;5073137;28;47193;-69
2021/12/26 02:45:52;;;;;;;;;64.67;44.67;;;;;5.11;75.85;100389.44;5072460;28;48302;-69
2021/12/26 02:48:17;;;;;;;;;60.00;45.33;;;;;5.11;75.94;100384.22;5073773;28;45423;-69
2021/12/26 02:50:45;;;;;;;;;65.33;46.67;;;;;5.10;76.02;100388.59;5074475;27;45447;-69
2021/12/26 02:53:12;;;;;;;;;58.67;46.00;;;;;5.12;76.87;100389.44;5072931;27;45450;-69
2021/12/26 02:55:38;;;;;;;;;66.67;46.33;;;;;5.13;75.76;100391.16;5064771;28;45518;-69
2021/12/26 02:58:09;;;;;;;;;66.00;46.33;;;;;5.08;76.46;100371.16;5072852;28;45426;-69
2021/12/26 03:00:42;;;;;;;;;60.33;42.33;;;;;5.10;76.06;100385.97;5072878;27;45379;-69
2021/12/26 03:03:07;;;;;;;;;53.00;41.67;;;;;5.06;75.92;100372.91;5070950;27;45375;-69
2021/12/26 03:05:36;;;;;;;;;70.00;50.67;;;;;5.06;76.65;100373.81;5073161;28;46102;-69
2021/12/26 03:08:04;;;;;;;;;57.33;43.67;;;;;5.13;77.06;100380.66;5072629;28;45296;-69
2021/12/26 03:10:29;;;;;;;;;65.67;49.33;;;;;5.16;75.97;100371.88;5072701;28;45356;-69
2021/12/26 03:12:57;;;;;;;;;64.00;45.33;;;;;5.18;77.41;100380.59;5073326;28;45368;-69
2021/12/26 03:15:24;;;;;;;;;67.33;46.67;;;;;5.20;77.01;100370.94;5071928;28;45299;-69
2021/12/26 03:17:50;;;;;;;;;71.67;49.00;;;;;5.19;76.44;100364.81;5075117;28;45447;-69
2021/12/26 03:20:19;;;;;;;;;59.67;45.00;;;;;5.16;76.91;100359.63;5072334;28;45546;-69
2021/12/26 03:22:45;;;;;;;;;60.75;45.50;;;;;4.75;75.87;100290.41;5072155;28;45336;-69
2021/12/26 03:25:18;;;;;;;;;59.50;44.50;;;;;5.00;75.97;100332.81;5068190;28;46248;-69
2021/12/26 03:27:44;;;;;;;;;63.00;45.67;;;;;5.19;76.86;100363.97;5071781;28;45498;-69
2021/12/26 03:30:13;;;;;;;;;61.33;44.33;;;;;5.21;77.17;100363.03;5070433;28;45327;-69
2021/12/26 03:32:40;;;;;;;;;63.00;45.00;;;;;5.20;76.54;100363.06;5061070;28;45308;-69
2021/12/26 03:35:06;;;;;;;;;64.00;44.67;;;;;5.10;77.67;100336.13;5059640;28;46090;-69
2021/12/26 03:37:32;;;;;;;;;61.33;47.67;;;;;5.28;76.69;100366.41;5059463;28;45403;-69
2021/12/26 03:39:57;;;;;;;;;60.33;45.33;;;;;5.29;77.53;100362.03;5058075;28;45266;-69
2021/12/26 03:42:23;;;;;;;;;51.25;42.25;;;;;5.14;76.36;100339.56;5055402;28;45602;-69
2021/12/26 03:44:50;;;;;;;;;60.00;44.25;;;;;5.28;76.15;100361.16;5058062;28;46092;-69
2021/12/26 03:47:16;;;;;;;;;60.33;42.67;;;;;5.16;75.70;100343.03;5059609;28;45526;-69
2021/12/26 03:49:41;;;;;;;;;57.00;45.00;;;;;5.28;77.45;100355.91;5059532;28;45348;-69
2021/12/26 03:52:07;;;;;;;;;54.00;43.25;;;;;5.14;76.27;100336.94;5059202;27;45603;-69
2021/12/26 03:54:33;;;;;;;;;62.33;44.33;;;;;5.31;75.96;100347.97;5056688;28;45945;-69
2021/12/26 03:56:58;;;;;;;;;61.25;44.50;;;;;5.07;76.31;100303.84;5061850;28;45407;-69
2021/12/26 03:59:24;;;;;;;;;61.67;47.67;;;;;5.34;76.41;100340.06;5062469;28;45368;-69
2021/12/26 04:01:49;;;;;;;;;62.00;43.33;;;;;5.19;76.82;100316.75;5062732;28;45329;-69
2021/12/26 04:04:15;;;;;;;;;62.33;45.00;;;;;5.37;76.56;100341.75;5062590;27;45333;-69
2021/12/26 04:06:40;;;;;;;;;59.33;44.00;;;;;5.39;76.16;100338.22;5058726;28;45556;-69
2021/12/26 04:09:08;;;;;;;;;64.33;45.00;;;;;5.40;77.30;100329.44;5061834;28;45524;-69
2021/12/26 04:11:35;;;;;;;;;52.50;39.75;;;;;5.41;76.85;100323.31;5071665;28;45372;-69
2021/12/26 04:14:01;;;;;;;;;57.00;43.25;;;;;5.27;76.35;100304.34;5060543;28;46040;-69
2021/12/26 04:16:27;;;;;;;;;59.00;40.25;;;;;5.29;76.53;100305.16;5062457;28;45883;-69
2021/12/26 04:18:52;;;;;;;;;59.00;44.00;;;;;5.38;76.03;100327.72;5060188;28;45852;-69
2021/12/26 04:21:18;;;;;;;;;59.50;44.75;;;;;5.35;77.20;100320.78;5059949;28;45254;-69
2021/12/26 04:23:43;;;;;;;;;45.75;37.25;;;;;5.34;76.40;100323.44;5061543;28;46317;-69
2021/12/26 04:26:08;;;;;;;;;58.75;41.25;;;;;5.27;77.57;100306.97;5070332;27;45379;-69
2021/12/26 04:28:34;;;;;;;;;58.67;41.67;;;;;5.36;76.53;100319.91;5074774;28;45256;-69
2021/12/26 04:30:59;;;;;;;;;61.33;43.33;;;;;5.36;76.75;100316.41;5073902;28;45523;-69
2021/12/26 04:33:24;;;;;;;;;52.50;43.00;;;;;5.30;76.32;100300.81;5075346;28;45220;-69
2021/12/26 04:35:50;;;;;;;;;57.00;41.67;;;;;5.26;76.45;100286.84;5077160;28;45332;-69
2021/12/26 04:38:15;;;;;;;;;62.33;44.00;;;;;5.43;77.67;100320.63;5075160;28;45362;-69
2021/12/26 04:40:41;;;;;;;;;61.00;41.00;;;;;5.28;76.08;100299.97;5074920;28;45360;-69
2021/12/26 04:43:07;;;;;;;;;62.67;45.67;;;;;5.37;75.75;100320.75;5074528;28;45444;-69
2021/12/26 04:45:32;;;;;;;;;60.25;45.50;;;;;5.31;77.21;100307.78;5074922;28;45304;-69
2021/12/26 04:48:01;;;;;;;;;67.00;44.67;;;;;5.38;76.07;100317.22;5077052;28;45315;-69
2021/12/26 04:50:28;;;;;;;;;58.00;44.33;;;;;5.38;76.95;100310.25;5075161;28;45553;-69
2021/12/26 04:52:53;;;;;;;;;66.00;45.75;;;;;5.27;76.46;100288.59;5073206;28;45920;-69
2021/12/26 04:55:22;;;;;;;;;59.33;42.00;;;;;5.43;76.33;100310.13;5074709;28;45361;-69
2021/12/26 04:57:48;;;;;;;;;54.25;40.50;;;;;5.43;76.47;100310.13;5074879;28;45343;-69
2021/12/26 05:00:18;;;;;;;;;59.00;46.33;;;;;5.38;77.04;100312.88;5075892;28;45542;-69
2021/12/26 05:02:44;;;;;;;;;58.75;41.25;;;;;5.35;78.07;100307.66;5075984;27;46131;-69
2021/12/26 05:05:10;;;;;;;;;60.75;43.00;;;;;5.45;77.40;100319.72;5073355;28;45359;-69
2021/12/26 05:07:37;;;;;;;;;47.00;41.00;;;;;5.31;77.82;100290.25;5074737;28;45340;-69
2021/12/26 05:10:05;;;;;;;;;52.50;43.25;;;;;5.52;77.17;100316.97;5074552;28;45377;-69
2021/12/26 05:12:31;;;;;;;;;67.75;42.25;;;;;5.38;76.62;100294.50;5074516;27;46568;-69
2021/12/26 05:14:56;;;;;;;;;62.00;44.50;;;;;5.18;77.09;100252.06;5059117;28;45862;-69
2021/12/26 05:17:21;;;;;;;;;60.00;43.75;;;;;5.55;76.54;100306.41;5056135;28;45419;-69
2021/12/26 05:19:47;;;;;;;;;72.00;44.33;;;;;5.53;76.17;100303.81;5074394;28;45601;-69
2021/12/26 05:22:12;;;;;;;;;63.75;43.50;;;;;5.34;77.18;100274.44;5074154;27;45541;-69
2021/12/26 05:24:37;;;;;;;;;59.00;44.00;;;;;5.31;77.72;100264.03;5073694;28;45450;-69
2021/12/26 05:27:04;;;;;;;;;59.00;43.75;;;;;5.46;77.59;100289.09;5077000;27;45376;-69
2021/12/26 05:29:29;;;;;;;;;63.67;45.33;;;;;5.45;77.84;100282.97;5060791;28;47328;-69
2021/12/26 05:31:55;;;;;;;;;67.33;45.00;;;;;5.54;77.54;100294.19;5073753;28;45375;-69
2021/12/26 05:34:20;;;;;;;;;62.00;46.33;;;;;5.40;77.53;100270.84;5074490;28;45568;-69
2021/12/26 05:36:47;;;;;;;;;61.50;45.00;;;;;5.54;77.47;100300.28;5074247;28;45524;-69
2021/12/26 05:39:12;;;;;;;;;51.50;41.00;;;;;5.42;76.89;100272.53;5075327;28;45399;-69
2021/12/26 05:41:39;;;;;;;;;66.25;42.75;;;;;5.54;77.46;100278.44;5060248;28;45924;-69
2021/12/26 05:44:04;;;;;;;;;63.50;48.00;;;;;5.49;77.14;100267.16;5073765;28;45390;-69
2021/12/26 05:46:30;;;;;;;;;63.33;48.00;;;;;5.56;77.34;100279.25;5073797;28;45308;-69
2021/12/26 05:48:55;;;;;;;;;67.00;47.00;;;;;5.34;77.61;100240.34;5074070;28;45422;-69
2021/12/26 05:51:21;;;;;;;;;63.25;41.00;;;;;5.47;77.88;100265.44;5074084;28;46201;-69
2021/12/26 05:53:46;;;;;;;;;51.50;37.50;;;;;5.49;77.99;100262.78;5075774;28;45313;-69
2021/12/26 05:56:11;;;;;;;;;70.67;48.33;;;;;5.40;77.58;100237.59;5073825;27;45422;-68
2021/12/26 05:58:37;;;;;;;;;62.33;47.33;;;;;5.60;77.86;100270.44;5073695;28;45300;-68
2021/12/26 06:01:03;;;;;;;;;68.67;47.67;;;;;5.62;77.39;100271.28;5073621;28;45447;-68
2021/12/26 06:03:28;;;;;;;;;64.00;45.33;;;;;5.62;77.35;100271.28;5073629;28;45395;-69
2021/12/26 06:05:53;;;;;;;;;58.67;39.00;;;;;5.60;77.08;100270.44;5075718;28;45346;-69
2021/12/26 06:08:19;;;;;;;;;62.00;45.00;;;;;5.61;77.83;100267.75;5073491;28;45226;-68
2021/12/26 06:10:44;;;;;;;;;58.50;44.50;;;;;5.54;77.11;100254.81;5053545;28;47331;-70
2021/12/26 06:13:10;;;;;;;;;64.50;48.50;;;;;5.49;77.25;100248.78;5073444;28;45392;-68
2021/12/26 06:15:36;;;;;;;;;63.75;43.50;;;;;5.53;77.67;100255.69;5073355;28;45313;-69
2021/12/26 06:18:01;;;;;;;;;64.00;46.67;;;;;5.54;77.40;100255.69;5076259;28;45312;-68
2021/12/26 06:20:27;;;;;;;;;66.00;45.00;;;;;5.59;77.92;100252.94;5073709;28;45397;-68
2021/12/26 06:22:52;;;;;;;;;64.33;46.00;;;;;5.49;77.83;100239.16;5073200;27;45387;-69
2021/12/26 06:25:18;;;;;;;;;63.75;45.50;;;;;5.64;77.79;100256.34;5073683;28;45444;-69
2021/12/26 06:27:43;;;;;;;;;62.75;44.00;;;;;5.51;78.59;100231.25;5074073;28;45242;-69
2021/12/26 06:30:10;;;;;;;;;62.00;45.67;;;;;5.65;77.28;100256.31;5075241;28;45354;-69
2021/12/26 06:32:36;;;;;;;;;58.33;43.33;;;;;5.60;76.96;100246.81;5053559;28;45573;-69
2021/12/26 06:35:02;;;;;;;;;61.25;44.25;;;;;5.64;78.31;100251.09;5068206;28;45523;-69
2021/12/26 06:37:29;;;;;;;;;64.67;49.00;;;;;5.53;77.30;100232.97;5071972;28;45332;-70
2021/12/26 06:39:54;;;;;;;;;59.67;43.33;;;;;5.67;78.50;100259.75;5073712;28;45938;-69
2021/12/26 06:42:20;;;;;;;;;63.00;44.00;;;;;5.70;77.20;100259.69;5074155;28;45269;-69
2021/12/26 06:44:45;;;;;;;;;65.50;45.00;;;;;5.69;77.45;100259.72;5075594;28;45412;-69
2021/12/26 06:47:11;;;;;;;;;61.33;45.33;;;;;5.72;78.07;100259.66;5073710;28;45372;-69
2021/12/26 06:49:37;;;;;;;;;66.67;47.00;;;;;5.57;77.64;100225.88;5072093;28;45303;-69
2021/12/26 06:52:04;;;;;;;;;58.00;44.50;;;;;5.73;78.52;100258.75;5067784;28;45476;-69
2021/12/26 06:54:30;;;;;;;;;62.50;40.25;;;;;5.61;77.99;100230.16;5073868;28;45444;-69
2021/12/26 06:56:56;;;;;;;;;67.00;44.75;;;;;5.76;77.21;100261.31;5075663;28;45406;-69
2021/12/26 06:59:21;;;;;;;;;56.33;44.67;;;;;5.67;77.58;100244.00;5073296;28;45352;-69
2021/12/26 07:01:46;;;;;;;;;60.50;42.00;;;;;5.79;77.61;100260.38;5073339;27;45419;-69
2021/12/26 07:04:12;;;;;;;;;63.00;43.75;;;;;5.68;77.31;100242.25;5073544;28;45372;-69
2021/12/26 07:06:37;;;;;;;;;61.25;45.25;;;;;5.65;77.88;100235.31;5073183;28;45443;-69
2021/12/26 07:09:03;;;;;;;;;59.00;45.00;;;;;5.63;78.13;100228.38;5070973;28;45455;-69
2021/12/26 07:11:28;;;;;;;;;73.67;48.00;;;;;5.65;77.30;100226.56;5051776;28;46002;-69
2021/12/26 07:13:56;;;;;;;;;63.00;45.33;;;;;5.78;78.36;100253.41;5066609;28;45444;-69
2021/12/26 07:16:22;;;;;;;;;65.00;45.33;;;;;5.76;78.48;100239.44;5073437;28;45720;-70
2021/12/26 07:18:48;;;;;;;;;60.00;43.25;;;;;5.74;77.81;100236.88;5073243;28;46226;-70
2021/12/26 07:21:13;;;;;;;;;53.00;43.50;;;;;5.84;78.07;100256.75;5055387;28;45432;-69
2021/12/26 07:23:39;;;;;;;;;60.67;46.00;;;;;5.81;78.35;100241.06;5074905;28;45805;-69
2021/12/26 07:26:04;;;;;;;;;60.00;43.33;;;;;5.80;77.81;100236.72;5072913;28;45488;-69
2021/12/26 07:28:29;;;;;;;;;60.75;43.00;;;;;5.74;77.47;100236.88;5073497;28;45572;-69
2021/12/26 07:30:54;;;;;;;;;56.67;45.00;;;;;5.87;77.96;100245.31;5076830;28;45567;-69
2021/12/26 07:33:20;;;;;;;;;64.50;43.00;;;;;5.84;77.68;100238.38;5077200;28;45367;-69
2021/12/26 07:35:45;;;;;;;;;62.25;48.25;;;;;5.79;77.57;100236.75;5078239;28;45582;-70
2021/12/26 07:38:11;;;;;;;;;55.50;42.75;;;;;5.49;77.99;100189.28;5076415;28;46237;-69
2021/12/26 07:40:36;;;;;;;;;56.50;43.25;;;;;5.85;78.60;100247.09;5076506;28;45502;-69
2021/12/26 07:43:02;;;;;;;;;68.00;48.00;;;;;5.73;78.60;100215.88;5076729;28;49616;-69
2021/12/26 07:45:27;;;;;;;;;58.25;44.00;;;;;5.91;77.50;100236.47;5076603;28;45458;-69
2021/12/26 07:47:52;;;;;;;;;60.50;43.00;;;;;5.87;78.45;100233.06;5078491;28;45910;-69
2021/12/26 07:50:18;;;;;;;;;55.50;40.50;;;;;5.72;77.62;100206.28;5075960;28;45348;-69
2021/12/26 07:52:45;;;;;;;;;56.50;42.50;;;;;5.75;78.50;100206.22;5076332;28;45386;-70
2021/12/26 07:55:13;;;;;;;;;60.33;45.33;;;;;5.97;78.34;100243.38;5076400;28;45556;-70
2021/12/26 07:57:39;;;;;;;;;61.33;43.67;;;;;5.98;77.63;100245.13;5076323;28;45272;-70
2021/12/26 08:00:07;;;;;;;;;64.33;44.00;;;;;6.01;77.93;100245.06;5078523;28;45336;-70
2021/12/26 08:02:33;;;;;;;;;60.25;44.25;;;;;6.01;78.00;100245.91;5076608;28;45534;-70
2021/12/26 08:04:58;;;;;;;;;67.25;46.75;;;;;5.92;78.18;100231.19;5075868;28;45225;-70
2021/12/26 08:07:24;;;;;;;;;55.50;43.25;;;;;5.86;77.65;100220.84;5074420;28;46221;-70
2021/12/26 08:09:49;;;;;;;;;72.75;46.25;;;;;6.01;77.83;100240.66;5057923;28;45218;-70
2021/12/26 08:12:15;;;;;;;;;65.25;47.50;;;;;6.07;78.14;100250.16;5077395;28;45415;-70
2021/12/26 08:14:40;;;;;;;;;61.00;41.75;;;;;6.10;78.46;100253.56;5077124;27;45214;-70
2021/12/26 08:17:05;;;;;;;;;58.75;43.75;;;;;5.98;77.93;100224.97;5075858;27;46161;-70
2021/12/26 08:19:31;;;;;;;;;62.25;47.00;;;;;5.99;78.49;100231.06;5075531;27;45249;-70
2021/12/26 08:21:56;;;;;;;;;59.50;47.50;;;;;6.20;78.43;100256.81;5075972;28;45348;-70
2021/12/26 08:24:26;;;;;;;;;70.00;45.00;;;;;6.23;78.25;100255.91;5075915;27;45280;-70
2021/12/26 08:26:52;;;;;;;;;65.75;43.50;;;;;6.04;78.27;100216.06;5076367;28;46140;-70
2021/12/26 08:29:21;;;;;;;;;69.00;46.25;;;;;6.20;78.41;100246.31;5075515;28;45636;-70
2021/12/26 08:31:47;;;;;;;;;65.00;46.00;;;;;6.09;78.19;100230.84;5075818;28;45394;-70
2021/12/26 08:34:13;;;;;;;;;69.00;46.75;;;;;6.10;78.72;100229.91;5075496;28;45529;-70
2021/12/26 08:36:39;;;;;;;;;57.75;43.50;;;;;6.30;78.48;100255.72;5072782;27;46919;-70
2021/12/26 08:39:04;;;;;;;;;60.75;45.75;;;;;6.18;78.04;100235.00;5076748;28;45466;-70
2021/12/26 08:41:30;;;;;;;;;59.75;45.50;;;;;5.74;77.89;100162.50;5075396;28;45621;-70
2021/12/26 08:43:55;;;;;;;;;60.75;46.50;;;;;6.38;78.96;100266.03;5075563;28;45442;-70
2021/12/26 08:46:22;;;;;;;;;60.00;46.00;;;;;6.41;78.75;100262.47;5073996;28;45492;-71
2021/12/26 08:48:48;;;;;;;;;57.50;42.50;;;;;6.37;78.36;100252.03;5075001;28;45245;-71
2021/12/26 08:51:13;;;;;;;;;52.75;34.75;;;;;6.24;78.42;100229.59;5077196;28;45336;-71
2021/12/26 08:53:39;;;;;;;;;47.75;40.00;;;;;6.36;78.45;100239.81;5076548;28;45344;-69
2021/12/26 08:56:16;;;;;;;;;65.00;45.75;;;;;6.11;78.82;100205.38;5075297;28;45430;-70
2021/12/26 08:58:41;;;;;;;;;59.00;43.75;;;;;6.36;78.96;100242.44;5075372;28;45511;-71
2021/12/26 09:01:07;;;;;;;;;54.00;36.25;;;;;6.42;78.82;100243.19;5075397;28;45563;-68
2021/12/26 09:03:32;;;;;;;;;54.75;31.00;;;;;6.43;79.52;100239.66;5075063;28;45614;-68
2021/12/26 09:05:57;;;;;;;;;59.50;43.50;;;;;6.09;79.51;100180.06;5059481;28;46366;-68
2021/12/26 09:08:23;;;;;;;;;64.75;43.50;;;;;6.57;79.07;100255.94;5075335;28;45427;-70
2021/12/26 09:10:49;;;;;;;;;63.50;46.25;;;;;6.42;79.44;100230.91;5075068;28;45363;-71
2021/12/26 09:13:14;;;;;;;;;53.25;40.50;;;;;6.54;79.52;100246.34;5075270;28;45367;-71
2021/12/26 09:15:40;;;;;;;;;58.25;40.75;;;;;6.61;80.00;100252.31;5075098;28;45359;-71
2021/12/26 09:18:05;;;;;;;;;53.50;38.25;;;;;6.61;79.69;100257.56;5077049;28;45885;-71
2021/12/26 09:20:31;;;;;;;;;48.75;36.00;;;;;6.61;80.46;100257.56;5074980;28;45391;-71
2021/12/26 09:22:57;;;;;;;;;59.50;40.50;;;;;6.58;80.43;100236.63;5074539;28;45437;-71
2021/12/26 09:25:22;;;;;;;;;62.75;41.00;;;;;6.67;80.54;100246.91;5073423;28;45374;-71
2021/12/26 09:27:48;;;;;;;;;49.25;38.00;;;;;6.71;80.10;100247.69;5074696;28;46557;-69
2021/12/26 09:30:15;;;;;;;;;56.50;41.00;;;;;6.73;79.60;100251.13;5076459;28;45241;-68
2021/12/26 09:32:40;;;;;;;;;47.00;35.00;;;;;6.66;80.19;100244.31;5075376;28;45255;-68
2021/12/26 09:35:06;;;;;;;;;55.50;40.00;;;;;6.71;80.32;100245.94;5074417;28;46684;-70
2021/12/26 09:37:32;;;;;;;;;59.75;40.75;;;;;6.80;80.33;100261.47;5074744;28;45665;-69
2021/12/26 09:39:57;;;;;;;;;55.75;41.00;;;;;6.78;80.45;100254.50;5074857;28;45462;-69
2021/12/26 09:42:24;;;;;;;;;56.00;36.00;;;;;6.82;80.64;100264.94;5074759;28;45576;-69
2021/12/26 09:44:51;;;;;;;;;53.00;38.50;;;;;6.71;80.94;100251.19;5076482;28;46065;-69
2021/12/26 09:47:16;;;;;;;;;44.25;35.75;;;;;6.75;80.73;100258.09;5074045;28;45529;-69
2021/12/26 09:49:41;;;;;;;;;45.75;36.50;;;;;6.70;80.95;100238.06;5074576;28;45651;-69
2021/12/26 09:52:07;;;;;;;;;46.50;36.00;;;;;6.87;80.67;100263.94;5068685;28;45363;-71
2021/12/26 09:54:33;;;;;;;;;42.75;35.25;;;;;6.89;80.43;100257.72;5074379;28;45421;-69
2021/12/26 09:56:59;;;;;;;;;43.50;35.75;;;;;6.93;80.75;100256.72;5076609;28;45807;-69
2021/12/26 09:59:27;;;;;;;;;40.75;36.25;;;;;6.81;80.72;100225.50;5074315;28;45407;-69
2021/12/26 10:01:55;;;;;;;;;42.75;32.25;;;;;6.90;80.68;100235.78;5074273;28;45421;-69
2021/12/26 10:04:26;;;;;;;;;44.00;36.25;;;;;7.05;80.49;100255.53;5072710;28;45523;-69
2021/12/26 10:06:58;;;;;;;;;48.00;36.00;;;;;7.09;80.82;100254.56;5074289;28;45530;-69
2021/12/26 10:09:23;;;;;;;;;33.75;30.75;;;;;7.03;80.35;100238.94;5074422;28;45407;-69
2021/12/26 10:11:51;;;;;;;;;52.25;36.50;;;;;7.00;80.76;100221.47;5076390;28;45366;-69
2021/12/26 10:14:25;;;;;;;;;42.75;33.00;;;;;7.14;80.98;100242.13;5073881;28;45486;-69
2021/12/26 10:16:57;;;;;;;;;38.50;33.25;;;;;7.15;80.70;100235.97;5073968;28;45176;-71
2021/12/26 10:19:23;;;;;;;;;37.50;33.00;;;;;7.00;80.78;100213.59;5068523;28;45494;-69
2021/12/26 10:22:10;;;;;;;;;31.50;18.50;;;;;7.19;80.61;100242.84;5054015;28;45502;-69
2021/12/26 10:24:41;;;;;;;;;37.25;32.25;;;;;7.23;81.22;100231.31;5056351;28;45471;-69
2021/12/26 10:27:12;;;;;;;;;44.00;37.00;;;;;7.19;80.85;100219.19;5075935;28;45356;-71
2021/12/26 10:29:41;;;;;;;;;36.00;30.00;;;;;7.24;81.05;100219.91;5073096;28;45221;-71
2021/12/26 10:32:09;;;;;;;;;39.50;30.00;;;;;7.37;81.06;100230.06;5073824;28;45534;-68
2021/12/26 10:34:34;;;;;;;;;39.75;27.50;;;;;7.40;81.69;100232.63;5073788;28;45477;-68
2021/12/26 10:37:03;;;;;;;;;37.00;30.50;;;;;7.31;80.92;100207.44;5073740;27;45530;-68
2021/12/26 10:39:49;;;;;;;;;32.75;28.00;;;;;7.45;81.20;100228.09;5072161;28;45650;-68
2021/12/26 10:42:21;;;;;;;;;37.50;32.50;;;;;7.45;81.29;100210.53;5074757;28;45546;-68
2021/12/26 10:44:53;;;;;;;;;34.25;27.75;;;;;7.38;80.94;100198.47;5074772;28;45581;-70
2021/12/26 10:47:21;;;;;;;;;27.75;24.75;;;;;7.27;80.81;100164.53;5057782;28;45886;-71
2021/12/26 10:49:50;;;;;;;;;40.25;30.00;;;;;7.61;80.94;100212.69;5073524;28;45499;-71
2021/12/26 10:52:22;;;;;;;;;32.50;26.75;;;;;7.55;81.54;100197.94;5073538;28;45597;-71
2021/12/26 10:54:51;;;;;;;;;29.50;28.75;;;;;7.53;81.31;100180.44;5073501;28;45383;-71
2021/12/26 10:57:38;;;;;;;;;30.75;22.75;;;;;7.65;80.96;100203.81;5074485;28;45309;-70
2021/12/26 11:00:15;;;;;;;;;34.50;30.25;;;;;7.60;81.40;100188.13;5070900;28;45287;-70
2021/12/26 11:02:52;;;;;;;;;27.00;26.50;;;;;7.61;81.41;100176.66;5073509;28;45309;-70
2021/12/26 11:05:22;;;;;;;;;32.00;23.25;;;;;7.76;81.71;100187.66;5073183;28;45540;-70
2021/12/26 11:07:56;;;;;;;;;25.00;21.50;;;;;7.77;81.76;100194.66;5073281;28;45483;-70
2021/12/26 11:10:34;;;;;;;;;35.75;26.75;;;;;7.80;81.48;100190.16;5073465;28;45524;-70
2021/12/26 11:13:02;;;;;;;;;31.50;17.75;;;;;7.88;81.53;100195.16;5073222;28;45374;-70
2021/12/26 11:15:32;;;;;;;;;28.25;21.25;;;;;7.89;82.00;100178.47;5073277;28;46660;-70
2021/12/26 11:18:05;;;;;;;;;24.75;23.00;;;;;7.96;81.66;100182.59;5075441;27;45525;-70